createdAt,value
2019-03-12T00:01:49.543Z,-0.13
2019-03-12T00:04:15.351Z,-0.13
2019-03-12T00:06:41.117Z,-0.17
2019-03-12T00:09:06.907Z,-0.18
2019-03-12T00:11:32.716Z,-0.13
2019-03-12T00:13:58.494Z,-0.11
2019-03-12T00:16:24.299Z,-0.17
2019-03-12T00:18:50.080Z,-0.19
2019-03-12T00:21:15.874Z,-0.15
2019-03-12T00:23:41.663Z,-0.28
2019-03-12T00:26:07.458Z,-0.39
2019-03-12T00:28:33.243Z,-0.45
2019-03-12T00:30:59.045Z,-0.54
2019-03-12T00:33:24.823Z,-0.52
2019-03-12T00:35:50.746Z,-0.55
2019-03-12T00:38:16.523Z,-0.64
2019-03-12T00:40:42.335Z,-0.64
2019-03-12T00:43:08.121Z,-0.62
2019-03-12T00:45:33.927Z,-0.53
2019-03-12T00:47:59.708Z,-0.50
2019-03-12T00:50:25.514Z,-0.43
2019-03-12T00:52:51.310Z,-0.40
2019-03-12T00:55:17.090Z,-0.39
2019-03-12T00:57:42.879Z,-0.50
2019-03-12T01:00:14.475Z,-0.47
2019-03-12T01:02:40.269Z,-0.44
2019-03-12T01:05:06.458Z,-0.41
2019-03-12T01:07:32.247Z,-0.53
2019-03-12T01:09:58.063Z,-0.51
2019-03-12T01:12:23.855Z,-0.49
2019-03-12T01:14:49.641Z,-0.50
2019-03-12T01:17:15.463Z,-0.47
2019-03-12T01:19:41.248Z,-0.48
2019-03-12T01:22:07.042Z,-0.50
2019-03-12T01:24:32.842Z,-0.49
2019-03-12T01:26:58.634Z,-0.47
2019-03-12T01:29:24.415Z,-0.41
2019-03-12T01:31:50.209Z,-0.34
2019-03-12T01:34:15.994Z,-0.33
2019-03-12T01:36:41.797Z,-0.32
2019-03-12T01:39:07.682Z,-0.24
2019-03-12T01:41:33.477Z,-0.21
2019-03-12T01:43:59.263Z,-0.13
2019-03-12T01:46:25.075Z,-0.18
2019-03-12T01:48:50.858Z,-0.14
2019-03-12T01:51:16.640Z,-0.15
2019-03-12T01:53:42.438Z,-0.19
2019-03-12T01:56:08.338Z,-0.19
2019-03-12T01:58:34.152Z,-0.20
2019-03-12T02:00:59.931Z,-0.23
2019-03-12T02:03:25.758Z,-0.21
2019-03-12T02:05:51.540Z,-0.26
2019-03-12T02:08:17.329Z,-0.29
2019-03-12T02:10:43.114Z,-0.26
2019-03-12T02:13:08.908Z,-0.27
2019-03-12T02:15:34.689Z,-0.26
2019-03-12T02:18:00.490Z,-0.18
2019-03-12T02:20:26.264Z,-0.12
2019-03-12T02:22:52.164Z,0.02
2019-03-12T02:25:18.234Z,0.13
2019-03-12T02:27:44.057Z,0.20
2019-03-12T02:30:20.090Z,0.26
2019-03-12T02:32:45.901Z,0.33
2019-03-12T02:35:11.691Z,0.39
2019-03-12T02:37:37.474Z,0.42
2019-03-12T02:40:05.804Z,0.45
2019-03-12T02:42:31.604Z,0.49
2019-03-12T02:44:57.411Z,0.50
2019-03-12T02:47:23.200Z,0.55
2019-03-12T02:49:48.996Z,0.57
2019-03-12T02:52:14.792Z,0.61
2019-03-12T02:54:40.598Z,0.58
2019-03-12T02:57:06.394Z,0.61
2019-03-12T02:59:32.294Z,0.64
2019-03-12T03:01:58.098Z,0.72
2019-03-12T03:04:23.900Z,0.72
2019-03-12T03:06:51.602Z,0.72
2019-03-12T03:09:17.410Z,0.73
2019-03-12T03:11:43.193Z,0.75
2019-03-12T03:14:29.624Z,0.81
2019-03-12T03:16:55.414Z,0.80
2019-03-12T03:19:21.331Z,0.83
2019-03-12T03:21:47.114Z,0.84
2019-03-12T03:24:12.922Z,0.89
2019-03-12T03:26:38.716Z,0.90
2019-03-12T03:29:04.508Z,0.96
2019-03-12T03:31:30.319Z,0.97
2019-03-12T03:33:56.110Z,0.96
2019-03-12T03:36:21.897Z,0.99
2019-03-12T03:38:47.688Z,1.00
2019-03-12T03:41:13.505Z,1.02
2019-03-12T03:43:39.291Z,1.04
2019-03-12T03:46:05.090Z,1.04
2019-03-12T03:48:30.874Z,1.05
2019-03-12T03:50:56.671Z,1.05
2019-03-12T03:53:22.448Z,1.08
2019-03-12T03:55:48.247Z,1.11
2019-03-12T03:58:14.030Z,1.15
2019-03-12T04:00:39.835Z,1.18
2019-03-12T04:03:05.687Z,1.23
2019-03-12T04:05:31.532Z,1.21
2019-03-12T04:07:57.330Z,1.22
2019-03-12T04:10:23.131Z,1.30
2019-03-12T04:12:48.945Z,1.28
2019-03-12T04:15:17.879Z,1.33
2019-03-12T04:17:43.665Z,1.37
2019-03-12T04:20:12.168Z,1.38
2019-03-12T04:22:37.986Z,1.38
2019-03-12T04:25:04.682Z,1.41
2019-03-12T04:27:30.490Z,1.42
2019-03-12T04:29:56.307Z,1.44
2019-03-12T04:32:22.108Z,1.44
2019-03-12T04:34:47.890Z,1.49
2019-03-12T04:37:13.743Z,1.52
2019-03-12T04:39:39.487Z,1.52
2019-03-12T04:42:05.290Z,1.56
2019-03-12T04:44:31.097Z,1.57
2019-03-12T04:46:56.895Z,1.62
2019-03-12T04:49:22.688Z,1.65
2019-03-12T04:51:48.477Z,1.69
2019-03-12T04:54:14.259Z,1.71
2019-03-12T04:56:40.077Z,1.72
2019-03-12T04:59:05.860Z,1.74
2019-03-12T05:01:31.672Z,1.75
2019-03-12T05:03:57.459Z,1.76
2019-03-12T05:06:23.244Z,1.74
2019-03-12T05:08:49.044Z,1.78
2019-03-12T05:11:14.850Z,1.87
2019-03-12T05:13:40.641Z,1.93
2019-03-12T05:16:06.446Z,1.90
2019-03-12T05:18:32.262Z,1.94
2019-03-12T05:20:58.040Z,1.95
2019-03-12T05:23:23.836Z,1.96
2019-03-12T05:25:49.637Z,1.94
2019-03-12T05:28:15.434Z,1.97
2019-03-12T05:30:41.220Z,2.02
2019-03-12T05:33:07.017Z,2.02
2019-03-12T05:35:32.803Z,2.02
2019-03-12T05:37:58.609Z,2.00
2019-03-12T05:40:24.392Z,2.02
2019-03-12T05:42:50.197Z,2.03
2019-03-12T05:45:16.681Z,2.02
2019-03-12T05:47:42.594Z,2.06
2019-03-12T05:50:12.818Z,2.00
2019-03-12T05:52:38.606Z,2.04
2019-03-12T05:55:06.001Z,2.00
2019-03-12T05:57:31.789Z,2.03
2019-03-12T05:59:57.587Z,2.01
2019-03-12T06:02:23.375Z,2.02
2019-03-12T06:04:49.169Z,2.05
2019-03-12T06:07:14.978Z,2.06
2019-03-12T06:09:40.780Z,2.09
2019-03-12T06:12:06.560Z,2.06
2019-03-12T06:14:32.357Z,2.08
2019-03-12T06:16:58.164Z,2.16
2019-03-12T06:19:23.959Z,2.16
2019-03-12T06:21:49.742Z,2.22
2019-03-12T06:24:15.573Z,2.22
2019-03-12T06:26:42.436Z,2.27
2019-03-12T06:29:08.268Z,2.21
2019-03-12T06:31:42.020Z,2.22
2019-03-12T06:34:09.737Z,2.30
2019-03-12T06:36:37.436Z,2.28
2019-03-12T06:39:07.544Z,2.32
2019-03-12T06:41:35.269Z,2.35
2019-03-12T06:44:11.703Z,2.38
2019-03-12T06:46:57.577Z,2.38
2019-03-12T06:49:27.822Z,2.36
2019-03-12T06:52:07.355Z,2.36
2019-03-12T06:54:35.050Z,2.29
2019-03-12T06:57:02.761Z,2.36
2019-03-12T06:59:36.235Z,2.27
2019-03-12T07:02:03.936Z,2.32
2019-03-12T07:04:37.220Z,2.33
2019-03-12T07:07:21.694Z,2.40
2019-03-12T07:10:07.545Z,2.54
2019-03-12T07:12:41.069Z,2.57
2019-03-12T07:15:21.879Z,2.55
2019-03-12T07:17:52.186Z,2.56
2019-03-12T07:20:25.610Z,2.65
2019-03-12T07:22:53.300Z,2.66
2019-03-12T07:25:37.433Z,2.73
2019-03-12T07:28:21.718Z,2.80
2019-03-12T07:30:52.239Z,2.74
2019-03-12T07:33:19.938Z,2.79
2019-03-12T07:36:04.305Z,2.76
2019-03-12T07:38:34.906Z,2.87
2019-03-12T07:41:05.132Z,2.92
2019-03-12T07:43:35.351Z,2.93
2019-03-12T07:46:14.880Z,2.94
2019-03-12T07:48:48.632Z,2.98
2019-03-12T07:51:32.857Z,3.03
2019-03-12T07:54:03.319Z,3.06
2019-03-12T07:56:33.684Z,3.13
2019-03-12T07:59:03.897Z,3.13
2019-03-12T08:01:31.629Z,3.21
2019-03-12T08:04:17.308Z,3.26
2019-03-12T08:06:56.899Z,3.29
2019-03-12T08:09:33.304Z,3.26
2019-03-12T08:12:01.030Z,3.36
2019-03-12T08:14:45.502Z,3.43
2019-03-12T08:17:13.214Z,3.53
2019-03-12T08:19:40.913Z,3.71
2019-03-12T08:22:11.406Z,3.92
2019-03-12T08:24:44.918Z,3.93
2019-03-12T08:27:18.438Z,3.93
2019-03-12T08:29:46.127Z,3.88
2019-03-12T08:32:13.847Z,4.03
2019-03-12T08:34:41.535Z,4.17
2019-03-12T08:37:24.260Z,4.48
2019-03-12T08:40:04.029Z,4.60
2019-03-12T08:42:54.609Z,4.76
2019-03-12T08:45:26.759Z,4.74
2019-03-12T08:48:03.098Z,4.92
2019-03-12T08:50:33.375Z,4.93
2019-03-12T08:53:04.038Z,4.94
2019-03-12T08:55:34.247Z,4.88
2019-03-12T08:58:04.765Z,4.95
2019-03-12T09:00:32.460Z,5.07
2019-03-12T09:03:18.397Z,5.05
2019-03-12T09:06:03.988Z,5.09
2019-03-12T09:08:34.227Z,5.00
2019-03-12T09:11:10.608Z,5.00
2019-03-12T09:13:54.844Z,4.98
2019-03-12T09:16:28.360Z,4.92
2019-03-12T09:19:04.922Z,4.96
2019-03-12T09:21:49.327Z,5.01
2019-03-12T09:24:33.849Z,5.05
2019-03-12T09:27:07.380Z,5.07
2019-03-12T09:29:35.082Z,5.16
2019-03-12T09:32:02.775Z,5.25
2019-03-12T09:34:30.479Z,5.29
2019-03-12T09:37:10.156Z,5.33
2019-03-12T09:39:40.810Z,5.43
2019-03-12T09:42:08.518Z,5.26
2019-03-12T09:44:36.217Z,5.12
2019-03-12T09:47:12.846Z,5.06
2019-03-12T09:49:58.470Z,5.00
2019-03-12T09:52:26.171Z,4.98
2019-03-12T09:54:56.406Z,5.02
2019-03-12T09:57:24.098Z,4.94
2019-03-12T09:59:51.832Z,4.94
2019-03-12T10:02:19.527Z,4.92
2019-03-12T10:04:55.933Z,4.94
2019-03-12T10:07:23.619Z,4.88
2019-03-12T10:10:03.473Z,4.89
2019-03-12T10:12:33.917Z,4.93
2019-03-12T10:15:19.824Z,5.03
2019-03-12T10:17:50.298Z,5.10
2019-03-12T10:20:34.677Z,4.98
2019-03-12T10:23:14.464Z,4.96
2019-03-12T10:25:48.002Z,5.04
2019-03-12T10:28:21.629Z,5.08
2019-03-12T10:31:01.356Z,5.04
2019-03-12T10:33:41.146Z,5.15
2019-03-12T10:36:24.135Z,5.38
2019-03-12T10:39:41.999Z,5.44
2019-03-12T10:42:21.797Z,5.34
2019-03-12T10:44:52.301Z,5.41
2019-03-12T10:47:22.608Z,5.47
2019-03-12T10:49:48.755Z,5.61
2019-03-12T10:52:14.548Z,5.65
2019-03-12T10:54:40.366Z,5.58
2019-03-12T10:57:06.158Z,5.58
2019-03-12T10:59:31.957Z,5.64
2019-03-12T11:01:57.742Z,5.52
2019-03-12T11:04:23.549Z,5.45
2019-03-12T11:06:49.392Z,5.42
2019-03-12T11:09:15.189Z,5.28
2019-03-12T11:11:40.978Z,5.21
2019-03-12T11:14:06.806Z,5.18
2019-03-12T11:16:32.600Z,5.11
2019-03-12T11:18:58.390Z,5.15
2019-03-12T11:21:24.199Z,5.19
2019-03-12T11:23:50.013Z,5.12
2019-03-12T11:26:15.795Z,5.04
2019-03-12T11:28:41.701Z,4.89
2019-03-12T11:31:07.582Z,4.88
2019-03-12T11:33:33.372Z,4.88
2019-03-12T11:35:59.195Z,4.78
2019-03-12T11:38:24.973Z,4.84
2019-03-12T11:40:50.803Z,4.91
2019-03-12T11:43:16.605Z,4.91
2019-03-12T11:45:42.410Z,4.84
2019-03-12T11:48:08.189Z,4.86
2019-03-12T11:50:33.986Z,4.85
2019-03-12T11:53:00.774Z,4.77
2019-03-12T11:55:26.870Z,4.83
2019-03-12T11:57:52.658Z,4.95
2019-03-12T12:00:40.546Z,5.06
2019-03-12T12:03:06.337Z,5.06
2019-03-12T12:05:32.175Z,5.09
2019-03-12T12:07:58.003Z,5.11
2019-03-12T12:10:23.946Z,5.08
2019-03-12T12:12:49.890Z,5.19
2019-03-12T12:15:15.709Z,5.30
2019-03-12T12:17:41.500Z,5.32
2019-03-12T12:20:09.425Z,5.38
2019-03-12T12:22:35.209Z,5.41
2019-03-12T12:25:01.021Z,5.60
2019-03-12T12:27:26.811Z,5.60
2019-03-12T12:29:52.641Z,5.60
2019-03-12T12:32:18.413Z,5.62
2019-03-12T12:34:44.208Z,5.69
2019-03-12T12:37:10.018Z,5.65
2019-03-12T12:39:35.799Z,5.59
2019-03-12T12:42:01.596Z,5.61
2019-03-12T12:44:27.382Z,5.61
2019-03-12T12:46:53.189Z,5.60
2019-03-12T12:49:18.976Z,5.59
2019-03-12T12:51:44.780Z,5.58
2019-03-12T12:54:10.648Z,5.67
2019-03-12T12:56:36.486Z,5.70
2019-03-12T12:59:02.276Z,5.71
2019-03-12T13:01:28.090Z,5.84
2019-03-12T13:03:53.873Z,5.95
2019-03-12T13:06:19.697Z,5.90
2019-03-12T13:08:45.501Z,5.93
2019-03-12T13:11:11.300Z,5.89
2019-03-12T13:13:37.106Z,5.89
2019-03-12T13:16:02.905Z,5.91
2019-03-12T13:18:28.701Z,5.86
2019-03-12T13:20:54.502Z,5.90
2019-03-12T13:23:21.118Z,5.90
2019-03-12T13:25:46.917Z,5.90
2019-03-12T13:28:12.724Z,5.89
2019-03-12T13:30:38.507Z,5.72
2019-03-12T13:33:04.315Z,5.55
2019-03-12T13:35:30.100Z,5.52
2019-03-12T13:37:55.893Z,5.42
2019-03-12T13:40:23.115Z,5.40
2019-03-12T13:42:49.141Z,5.42
2019-03-12T13:45:19.574Z,5.42
2019-03-12T13:47:45.647Z,5.40
2019-03-12T13:50:12.064Z,5.48
2019-03-12T13:52:37.886Z,5.54
2019-03-12T13:55:06.975Z,5.49
2019-03-12T13:57:32.779Z,5.54
2019-03-12T13:59:58.580Z,5.58
2019-03-12T14:02:24.353Z,5.59
2019-03-12T14:04:50.180Z,5.64
2019-03-12T14:07:16.136Z,5.66
2019-03-12T14:09:41.927Z,5.63
2019-03-12T14:12:07.812Z,5.63
2019-03-12T14:14:33.614Z,5.66
2019-03-12T14:16:59.396Z,5.75
2019-03-12T14:19:25.194Z,5.76
2019-03-12T14:21:51.179Z,5.78
2019-03-12T14:24:16.987Z,5.84
2019-03-12T14:26:42.773Z,5.84
2019-03-12T14:29:08.571Z,5.86
2019-03-12T14:31:34.375Z,5.82
2019-03-12T14:34:00.170Z,5.85
2019-03-12T14:36:25.954Z,5.88
2019-03-12T14:38:51.768Z,5.92
2019-03-12T14:41:17.571Z,5.92
2019-03-12T14:43:43.388Z,5.91
2019-03-12T14:46:09.273Z,5.94
2019-03-12T14:48:44.068Z,5.93
2019-03-12T14:51:13.685Z,5.90
2019-03-12T14:53:40.984Z,5.94
2019-03-12T14:56:06.785Z,5.93
2019-03-12T14:58:32.578Z,5.94
2019-03-12T15:00:58.384Z,6.04
2019-03-12T15:03:24.160Z,6.00
2019-03-12T15:05:50.107Z,6.02
2019-03-12T15:08:15.898Z,6.01
2019-03-12T15:10:41.693Z,6.03
2019-03-12T15:13:07.483Z,5.98
2019-03-12T15:15:33.283Z,5.99
2019-03-12T15:17:59.085Z,6.01
2019-03-12T15:20:24.882Z,5.95
2019-03-12T15:22:50.669Z,5.92
2019-03-12T15:25:16.466Z,5.97
2019-03-12T15:27:42.263Z,6.01
2019-03-12T15:30:14.791Z,6.06
2019-03-12T15:32:40.576Z,6.07
2019-03-12T15:35:06.481Z,6.14
2019-03-12T15:37:32.263Z,6.10
2019-03-12T15:39:58.071Z,6.22
2019-03-12T15:42:23.848Z,6.22
2019-03-12T15:44:49.732Z,6.25
2019-03-12T15:47:15.522Z,6.21
2019-03-12T15:49:42.967Z,6.19
2019-03-12T15:52:09.024Z,6.16
2019-03-12T15:54:34.869Z,6.08
2019-03-12T15:57:00.670Z,6.08
2019-03-12T15:59:26.651Z,6.06
2019-03-12T16:01:52.443Z,5.99
2019-03-12T16:04:18.226Z,5.98
2019-03-12T16:06:44.070Z,5.97
2019-03-12T16:09:10.070Z,5.89
2019-03-12T16:11:35.971Z,5.84
2019-03-12T16:14:01.752Z,5.81
2019-03-12T16:16:27.544Z,5.80
2019-03-12T16:18:53.327Z,5.78
2019-03-12T16:21:19.132Z,5.76
2019-03-12T16:23:44.917Z,5.82
2019-03-12T16:26:10.721Z,5.80
2019-03-12T16:28:36.503Z,5.87
2019-03-12T16:31:02.310Z,5.90
2019-03-12T16:33:28.089Z,5.87
2019-03-12T16:35:53.888Z,5.85
2019-03-12T16:38:19.681Z,5.88
2019-03-12T16:40:45.463Z,5.88
2019-03-12T16:43:11.276Z,5.85
2019-03-12T16:45:37.065Z,5.91
2019-03-12T16:48:02.860Z,5.92
2019-03-12T16:50:28.646Z,5.88
2019-03-12T16:52:54.463Z,5.87
2019-03-12T16:55:20.266Z,5.88
2019-03-12T16:57:46.056Z,5.97
2019-03-12T17:00:13.640Z,5.99
2019-03-12T17:02:39.464Z,6.00
2019-03-12T17:05:07.793Z,6.00
2019-03-12T17:07:33.589Z,5.97
2019-03-12T17:09:59.379Z,6.03
2019-03-12T17:12:25.173Z,6.01
2019-03-12T17:14:50.958Z,6.01
2019-03-12T17:17:16.768Z,6.02
2019-03-12T17:19:42.546Z,6.02
2019-03-12T17:22:08.350Z,6.08
2019-03-12T17:24:34.136Z,6.15
2019-03-12T17:26:59.956Z,6.09
2019-03-12T17:29:25.782Z,6.09
2019-03-12T17:31:51.572Z,6.24
2019-03-12T17:34:17.389Z,6.20
2019-03-12T17:36:43.173Z,6.21
2019-03-12T17:39:09.082Z,6.20
2019-03-12T17:41:34.873Z,6.10
2019-03-12T17:44:00.678Z,6.10
2019-03-12T17:46:26.465Z,6.06
2019-03-12T17:48:52.257Z,6.05
2019-03-12T17:51:18.041Z,6.04
2019-03-12T17:53:43.846Z,5.97
2019-03-12T17:56:09.632Z,5.97
2019-03-12T17:58:35.429Z,5.92
2019-03-12T18:01:01.222Z,5.91
2019-03-12T18:03:27.009Z,5.80
2019-03-12T18:05:52.813Z,5.72
2019-03-12T18:08:18.606Z,5.69
2019-03-12T18:10:44.393Z,5.71
2019-03-12T18:13:10.199Z,5.67
2019-03-12T18:15:35.983Z,5.64
2019-03-12T18:18:01.783Z,5.56
2019-03-12T18:20:27.695Z,5.49
2019-03-12T18:22:53.529Z,5.48
2019-03-12T18:25:35.199Z,5.46
2019-03-12T18:28:00.997Z,5.50
2019-03-12T18:30:26.878Z,5.42
2019-03-12T18:32:52.661Z,5.46
2019-03-12T18:35:18.451Z,5.47
2019-03-12T18:37:44.233Z,5.44
2019-03-12T18:40:12.733Z,5.45
2019-03-12T18:42:38.616Z,5.48
2019-03-12T18:45:11.309Z,5.47
2019-03-12T18:47:37.136Z,5.48
2019-03-12T18:50:09.309Z,5.40
2019-03-12T18:52:35.097Z,5.40
2019-03-12T18:55:00.891Z,5.41
2019-03-12T18:57:26.678Z,5.35
2019-03-12T18:59:52.590Z,5.34
2019-03-12T19:02:18.381Z,5.27
2019-03-12T19:04:44.178Z,5.26
2019-03-12T19:07:10.002Z,5.23
2019-03-12T19:09:35.798Z,5.22
2019-03-12T19:12:01.581Z,5.21
2019-03-12T19:14:27.385Z,5.15
2019-03-12T19:16:53.174Z,5.22
2019-03-12T19:19:18.977Z,5.16
2019-03-12T19:21:44.755Z,5.16
2019-03-12T19:24:10.563Z,5.21
2019-03-12T19:26:36.339Z,5.21
2019-03-12T19:29:02.150Z,5.20
2019-03-12T19:31:32.622Z,5.26
2019-03-12T19:33:59.712Z,5.29
2019-03-12T19:36:25.511Z,5.28
2019-03-12T19:38:51.389Z,5.25
2019-03-12T19:41:17.209Z,5.31
2019-03-12T19:43:42.999Z,5.30
2019-03-12T19:46:08.798Z,5.30
2019-03-12T19:48:34.583Z,5.26
2019-03-12T19:51:00.382Z,5.26
2019-03-12T19:53:26.187Z,5.20
2019-03-12T19:55:55.313Z,5.22
2019-03-12T19:58:21.170Z,5.26
2019-03-12T20:00:47.059Z,5.24
2019-03-12T20:03:15.271Z,5.25
2019-03-12T20:05:40.574Z,5.19
2019-03-12T20:08:06.347Z,5.18
2019-03-12T20:10:48.352Z,5.11
2019-03-12T20:13:51.717Z,5.17
2019-03-12T20:16:33.207Z,5.21
2019-03-12T20:19:35.982Z,5.18
2019-03-12T20:22:34.571Z,5.12
2019-03-12T20:25:37.968Z,5.27
2019-03-12T20:28:13.421Z,5.32
2019-03-12T20:31:06.897Z,5.35
2019-03-12T20:34:03.556Z,5.36
2019-03-12T20:37:07.023Z,5.41
2019-03-12T20:40:06.818Z,5.44
2019-03-12T20:42:36.432Z,5.48
2019-03-12T20:45:26.810Z,5.49
2019-03-12T20:48:30.000Z,5.52
2019-03-12T20:51:08.474Z,5.45
2019-03-12T20:54:04.189Z,5.51
2019-03-12T20:57:10.698Z,5.53
2019-03-12T21:00:02.710Z,5.55
2019-03-12T21:02:47.642Z,5.58
2019-03-12T21:05:32.529Z,5.71
2019-03-12T21:08:16.993Z,5.73
2019-03-12T21:10:52.413Z,5.69
2019-03-12T21:13:47.456Z,5.60
2019-03-12T21:16:33.502Z,5.45
2019-03-12T21:19:29.347Z,5.19
2019-03-12T21:22:23.121Z,5.15
2019-03-12T21:25:04.391Z,5.12
2019-03-12T21:27:39.853Z,5.06
2019-03-12T21:30:05.481Z,4.99
2019-03-12T21:32:31.404Z,4.90
2019-03-12T21:34:57.198Z,4.85
2019-03-12T21:37:23.199Z,4.78
2019-03-12T21:39:55.815Z,4.80
2019-03-12T21:42:16.890Z,4.80
2019-03-12T21:44:42.679Z,4.71
2019-03-12T21:47:08.476Z,4.70
2019-03-12T21:49:34.265Z,4.70
2019-03-12T21:52:00.081Z,4.71
2019-03-12T21:54:25.859Z,4.73
2019-03-12T21:56:51.647Z,4.71
2019-03-12T21:59:17.461Z,4.72
2019-03-12T22:01:43.248Z,4.72
2019-03-12T22:04:09.044Z,4.71
2019-03-12T22:06:35.049Z,4.72
2019-03-12T22:09:03.651Z,4.76
2019-03-12T22:11:29.461Z,4.79
2019-03-12T22:13:55.282Z,4.83
2019-03-12T22:16:21.089Z,4.87
2019-03-12T22:18:46.907Z,4.90
2019-03-12T22:21:14.590Z,4.89
2019-03-12T22:23:42.319Z,4.90
2019-03-12T22:26:08.105Z,4.93
2019-03-12T22:28:36.003Z,4.97
2019-03-12T22:31:01.809Z,5.04
2019-03-12T22:33:27.606Z,5.06
2019-03-12T22:35:53.390Z,5.05
2019-03-12T22:38:19.210Z,5.00
2019-03-12T22:40:45.016Z,5.04
2019-03-12T22:43:10.811Z,5.01
2019-03-12T22:45:36.600Z,4.95
2019-03-12T22:48:02.399Z,4.93
2019-03-12T22:50:28.198Z,4.91
2019-03-12T22:52:54.013Z,4.91
2019-03-12T22:55:19.830Z,4.90
2019-03-12T22:57:45.621Z,4.89
2019-03-12T23:00:19.197Z,4.86
2019-03-12T23:02:44.997Z,4.89
2019-03-12T23:05:11.098Z,4.82
2019-03-12T23:07:36.918Z,4.82
2019-03-12T23:10:05.523Z,4.76
2019-03-12T23:12:31.304Z,4.77
2019-03-12T23:14:57.101Z,4.81
2019-03-12T23:17:22.880Z,4.87
2019-03-12T23:19:48.688Z,4.79
2019-03-12T23:22:14.461Z,4.82
2019-03-12T23:24:40.281Z,4.79
2019-03-12T23:27:06.069Z,4.74
2019-03-12T23:29:31.878Z,4.73
2019-03-12T23:31:57.663Z,4.76
2019-03-12T23:34:23.456Z,4.77
2019-03-12T23:36:49.244Z,4.78
2019-03-12T23:39:15.145Z,4.73
2019-03-12T23:41:40.930Z,4.77
2019-03-12T23:44:06.921Z,4.78
2019-03-12T23:46:32.723Z,4.78
2019-03-12T23:48:58.508Z,4.83
2019-03-12T23:51:24.340Z,4.79
2019-03-12T23:53:50.133Z,4.80
2019-03-12T23:56:15.946Z,4.76
2019-03-12T23:58:41.741Z,4.74
